KTOP/TOP METAR and TAF weather

Enter ICAO airport designator
Station Type Date Time Source
KTOP METAR 2022/06/30 01:53 UTC NOAA

KTOP 300153Z AUTO 18005KT 10SM CLR 28/16 A3006 RMK AO2 SLP170 T02830161 $


Station Type Date Time Source
KTOP Decoded METAR 2022/06/30 01:53 UTC NOAA

TOPEKA BILLARD MUNICIPAL AIRPORT, KS, United States (KTOP) 39-04N 95-38W 268M
Jun 29, 2022 - 09:53 PM EDT / 2022.06.30 0153 UTC
Wind: from the S (180 degrees) at 6 MPH (5 KT):0
Visibility: 10 mile(s):0
Sky conditions: clear
Temperature: 82.9 F (28.3 C)
Dew Point: 61.0 F (16.1 C)
Relative Humidity: 47%
Pressure (altimeter): 30.06 in. Hg (1017 hPa)
ob: KTOP 300153Z AUTO 18005KT 10SM CLR 28/16 A3006 RMK AO2 SLP170 T02830161
cycle: 2

Station Type Date Time Source
KTOP TAF 2022/06/29 18:22 UTC NOAA

TAF KTOP 291720Z 2918/3018 19010KT P6SM SKC
FM301500 20011G20KT P6SM SKC

Example: see airport list